Time;durP1;ratioP1;P1;durP2;ratioP2;P2;SDS_P1;SDS_P2;PMS_P1;PMS_P2;Temp;Humidity;BMP_temperature;BMP_pressure;BME280_temperature;BME280_humidity;BME280_pressure;Samples;Min_cycle;Max_cycle;Signal;HPM_P1;HPM_P2
2022/05/08 00:01:38;;;;;;;8.95;4.55;;;;;;;15.53;76.00;102409.97;7386613;19;20022;-65
2022/05/08 00:04:05;;;;;;;12.30;5.50;;;;;;;15.53;75.49;102412.63;7383445;19;20015;-66
2022/05/08 00:06:33;;;;;;;8.93;4.35;;;;;;;15.53;76.16;102409.97;7382123;19;20222;-66
2022/05/08 00:09:00;;;;;;;11.82;5.10;;;;;;;15.51;75.04;102408.41;7385139;19;20395;-67
2022/05/08 00:11:27;;;;;;;9.77;5.20;;;;;;;15.49;75.13;102408.53;7384634;19;20018;-66
2022/05/08 00:13:55;;;;;;;12.05;5.35;;;;;;;15.50;75.71;102404.91;7385204;19;20043;-68
2022/05/08 00:16:22;;;;;;;10.57;5.53;;;;;;;15.48;75.72;102412.19;7382271;19;20630;-67
2022/05/08 00:18:50;;;;;;;11.20;5.53;;;;;;;15.49;75.75;102411.19;7386448;19;20023;-69
2022/05/08 00:21:17;;;;;;;11.07;5.13;;;;;;;15.52;75.78;102410.94;7385225;19;20034;-69
2022/05/08 00:23:44;;;;;;;12.00;5.72;;;;;;;15.54;75.67;102408.16;7392620;19;20034;-68
2022/05/08 00:26:11;;;;;;;11.90;5.65;;;;;;;15.52;75.55;102413.59;7389313;19;20014;-67
2022/05/08 00:28:38;;;;;;;11.73;5.47;;;;;;;15.50;75.62;102410.22;7393865;19;20037;-66
2022/05/08 00:31:10;;;;;;;17.15;10.07;;;;;;;15.49;76.59;102424.44;7391942;19;20015;-67
2022/05/08 00:33:38;;;;;;;11.15;5.78;;;;;;;15.44;76.15;102410.78;7392049;19;20026;-67
2022/05/08 00:36:06;;;;;;;8.13;3.47;;;;;;;15.36;75.18;102413.34;7389098;19;20015;-68
2022/05/08 00:38:36;;;;;;;8.77;3.60;;;;;;;15.27;75.33;102415.06;7392794;19;20014;-68
2022/05/08 00:41:03;;;;;;;11.07;4.45;;;;;;;15.23;75.83;102411.03;7390556;19;20324;-66
2022/05/08 00:43:33;;;;;;;9.02;3.42;;;;;;;15.21;75.78;102417.44;7388939;19;20678;-67
2022/05/08 00:46:02;;;;;;;8.93;4.28;;;;;;;15.18;75.65;102413.25;7390264;19;20022;-69
2022/05/08 00:48:29;;;;;;;8.38;4.05;;;;;;;15.17;75.72;102413.41;7389623;19;20066;-67
2022/05/08 00:50:58;;;;;;;11.43;4.45;;;;;;;15.12;76.04;102413.00;7392645;19;20010;-70
2022/05/08 00:53:37;;;;;;;6.50;3.50;;;;;;;15.04;76.14;102416.34;7386414;19;20554;-67
2022/05/08 00:56:07;;;;;;;8.05;3.72;;;;;;;14.95;76.21;102410.09;7390040;19;20522;-67
2022/05/08 00:58:36;;;;;;;7.38;3.60;;;;;;;14.92;75.94;102409.53;7392691;19;20014;-67
2022/05/08 01:01:05;;;;;;;8.23;3.25;;;;;;;14.87;75.98;102406.47;7394119;19;20023;-66
2022/05/08 01:03:32;;;;;;;9.10;3.85;;;;;;;14.80;75.99;102408.84;7391260;19;20023;-70
2022/05/08 01:06:04;;;;;;;9.57;5.68;;;;;;;14.74;76.78;102400.63;7391090;19;20087;-67
2022/05/08 01:08:34;;;;;;;8.20;3.63;;;;;;;14.71;76.30;102412.34;7391525;19;20027;-68
2022/05/08 01:11:03;;;;;;;7.57;3.10;;;;;;;14.66;75.88;102422.53;7388681;19;20023;-67
2022/05/08 01:13:30;;;;;;;7.57;3.17;;;;;;;14.64;76.09;102413.88;7393264;19;20074;-68
2022/05/08 01:15:57;;;;;;;7.25;3.28;;;;;;;14.63;76.32;102416.69;7390301;19;20022;-69
2022/05/08 01:18:25;;;;;;;5.80;3.22;;;;;;;14.58;76.19;102414.44;7387972;19;20002;-68
2022/05/08 01:20:52;;;;;;;6.68;3.35;;;;;;;14.55;76.29;102407.63;7392612;19;20098;-67
2022/05/08 01:23:21;;;;;;;7.78;4.10;;;;;;;14.53;76.92;102419.31;7390606;19;20011;-67
2022/05/08 01:25:50;;;;;;;6.72;2.75;;;;;;;14.55;76.82;102414.72;7387228;19;20014;-67
2022/05/08 01:28:18;;;;;;;6.85;2.22;;;;;;;14.59;75.68;102420.56;7390831;19;20021;-66
2022/05/08 01:30:51;;;;;;;6.07;2.25;;;;;;;14.61;75.53;102415.97;7388317;19;20045;-67
2022/05/08 01:33:23;;;;;;;9.32;5.18;;;;;;;14.65;75.67;102414.72;7390390;19;20014;-67
2022/05/08 01:35:51;;;;;;;6.80;2.20;;;;;;;14.69;75.13;102409.00;7388240;19;20021;-70
2022/05/08 01:38:22;;;;;;;6.35;2.25;;;;;;;14.70;74.45;102400.06;7390040;19;20007;-68
2022/05/08 01:40:51;;;;;;;6.22;2.15;;;;;;;14.69;74.40;102403.69;7388438;19;20014;-69
2022/05/08 01:43:18;;;;;;;3.95;2.03;;;;;;;14.64;74.78;102397.13;7391805;19;20468;-68
2022/05/08 01:45:47;;;;;;;4.35;1.55;;;;;;;14.62;73.87;102397.31;7387121;19;20046;-68
2022/05/08 01:50:53;;;;;;;4.93;1.90;;;;;;;14.55;74.41;102399.66;7391479;19;20010;-70
2022/05/08 01:53:23;;;;;;;3.67;1.55;;;;;;;14.54;74.54;102392.69;7387685;19;20018;-68
2022/05/08 01:55:54;;;;;;;3.53;1.33;;;;;;;14.61;74.21;102397.44;7390682;19;20010;-69
2022/05/08 01:58:23;;;;;;;4.18;1.60;;;;;;;14.58;74.17;102387.94;7389731;19;20019;-67
2022/05/08 02:00:51;;;;;;;4.15;1.50;;;;;;;14.55;74.18;102404.13;7391320;19;20476;-68
2022/05/08 02:03:20;;;;;;;3.83;1.40;;;;;;;14.52;73.65;102399.13;7388915;19;20006;-69
2022/05/08 02:05:49;;;;;;;4.10;1.75;;;;;;;14.51;73.91;102402.75;7386219;19;20656;-67
2022/05/08 02:08:17;;;;;;;2.90;1.30;;;;;;;14.51;74.00;102410.69;7388584;19;20042;-68
2022/05/08 02:10:44;;;;;;;4.75;1.77;;;;;;;14.49;74.02;102404.69;7387138;19;20034;-68
2022/05/08 02:13:12;;;;;;;3.65;1.30;;;;;;;14.48;73.47;102406.50;7388795;19;20050;-67
2022/05/08 02:15:40;;;;;;;2.70;1.15;;;;;;;14.47;73.47;102407.50;7389150;19;20100;-67
2022/05/08 02:18:08;;;;;;;3.22;1.30;;;;;;;14.45;73.63;102400.63;7390327;19;20047;-68
2022/05/08 02:20:39;;;;;;;2.85;0.93;;;;;;;14.42;73.69;102412.38;7387203;19;20021;-68
2022/05/08 02:23:07;;;;;;;4.07;1.30;;;;;;;14.43;73.62;102415.81;7387604;19;20010;-69
2022/05/08 02:25:34;;;;;;;3.67;2.08;;;;;;;14.41;73.97;102418.63;7386423;19;20014;-68
2022/05/08 02:28:02;;;;;;;4.35;1.08;;;;;;;14.39;73.23;102412.63;7391018;19;20476;-68
2022/05/08 02:30:29;;;;;;;4.45;1.05;;;;;;;14.34;73.43;102411.31;7388137;19;20773;-67
2022/05/08 02:32:57;;;;;;;5.93;1.35;;;;;;;14.26;73.37;102427.91;7389950;19;20037;-66
2022/05/08 02:35:25;;;;;;;3.10;1.13;;;;;;;14.26;73.52;102406.75;7388856;19;20018;-68
2022/05/08 02:37:54;;;;;;;4.30;1.10;;;;;;;14.25;73.58;102415.66;7388756;19;20018;-68
2022/05/08 02:40:23;;;;;;;4.00;1.20;;;;;;;14.23;73.29;102417.59;7387222;19;20018;-66
2022/05/08 02:42:51;;;;;;;3.25;1.10;;;;;;;14.16;73.70;102416.47;7385638;19;20015;-68
2022/05/08 02:45:19;;;;;;;3.08;1.27;;;;;;;14.16;72.94;102413.81;7382713;19;20018;-67
2022/05/08 02:47:47;;;;;;;2.92;1.20;;;;;;;14.06;73.68;102413.81;7387324;19;20549;-68
2022/05/08 02:50:14;;;;;;;3.65;1.27;;;;;;;14.08;73.15;102421.59;7390232;19;20034;-67
2022/05/08 02:52:42;;;;;;;3.55;1.38;;;;;;;14.07;73.19;102418.09;7386713;19;20046;-67
2022/05/08 03:00:29;;;;;;;3.47;1.33;;;;;;;14.01;73.81;102431.06;7388052;19;20044;-69
2022/05/08 03:02:55;;;;;;;4.75;1.88;;;;;;;13.93;74.02;102431.72;7387367;19;20032;-66
2022/05/08 03:05:23;;;;;;;5.20;1.63;;;;;;;13.93;74.05;102430.88;7390047;19;20018;-67
2022/05/08 03:07:50;;;;;;;3.17;1.42;;;;;;;13.95;73.92;102426.31;7384169;19;20018;-68
2022/05/08 03:10:17;;;;;;;3.28;1.38;;;;;;;13.92;74.18;102430.06;7385411;19;20014;-68
2022/05/08 03:12:44;;;;;;;3.38;1.25;;;;;;;13.95;74.50;102426.31;7390714;19;20337;-68
2022/05/08 03:15:11;;;;;;;4.57;1.13;;;;;;;13.95;74.22;102423.66;7385890;19;20011;-67
2022/05/08 03:17:38;;;;;;;4.57;2.00;;;;;;;13.91;74.65;102428.41;7389291;19;20022;-67
2022/05/08 03:20:06;;;;;;;6.20;2.00;;;;;;;13.87;75.51;102421.69;7385421;19;20499;-67
2022/05/08 03:22:34;;;;;;;5.15;1.92;;;;;;;13.89;75.77;102432.13;7391071;19;20006;-67
2022/05/08 03:25:01;;;;;;;6.68;2.45;;;;;;;13.90;75.68;102418.78;7386670;19;20373;-67
2022/05/08 03:27:30;;;;;;;4.38;1.92;;;;;;;13.84;76.54;102419.31;7386691;19;20010;-68
2022/05/08 03:29:58;;;;;;;7.97;3.10;;;;;;;13.81;76.45;102422.25;7386797;19;20051;-69
2022/05/08 03:32:26;;;;;;;7.32;2.72;;;;;;;13.76;76.88;102424.47;7383754;19;20042;-69
2022/05/08 03:34:53;;;;;;;5.45;2.13;;;;;;;13.69;77.06;102424.13;7386922;19;20053;-68
2022/05/08 03:37:20;;;;;;;7.20;2.28;;;;;;;13.67;77.06;102420.78;7388398;19;20101;-67
2022/05/08 03:39:47;;;;;;;8.85;3.70;;;;;;;13.66;77.33;102415.66;7388207;19;20409;-69
2022/05/08 03:42:16;;;;;;;6.45;2.58;;;;;;;13.70;77.13;102422.34;7385347;19;20078;-68
2022/05/08 03:44:43;;;;;;;5.47;2.80;;;;;;;13.69;76.90;102421.50;7384253;19;20010;-70
2022/05/08 03:47:10;;;;;;;9.27;3.30;;;;;;;13.65;77.07;102422.75;7389212;19;20019;-69
2022/05/08 03:49:37;;;;;;;6.22;3.60;;;;;;;13.56;77.63;102422.69;7386546;19;20046;-67
2022/05/08 03:52:04;;;;;;;8.57;3.17;;;;;;;13.49;78.11;102422.38;7388879;19;20028;-67
2022/05/08 03:54:31;;;;;;;10.07;5.93;;;;;;;13.47;78.44;102421.66;7386620;19;20019;-68
2022/05/08 03:56:58;;;;;;;9.75;3.55;;;;;;;13.50;78.87;102425.88;7391846;19;20038;-67
2022/05/08 03:59:25;;;;;;;8.30;3.47;;;;;;;13.52;78.36;102429.19;7393331;19;20346;-68
2022/05/08 04:01:54;;;;;;;7.88;3.13;;;;;;;13.52;77.79;102434.50;7392370;19;20054;-68
2022/05/08 04:04:22;;;;;;;6.22;3.33;;;;;;;13.55;78.74;102429.78;7396363;19;20010;-68
2022/05/08 04:06:49;;;;;;;8.68;3.38;;;;;;;13.57;77.81;102429.66;7391476;19;20397;-68
2022/05/08 04:09:16;;;;;;;9.18;3.45;;;;;;;13.53;77.41;102433.53;7391744;19;20075;-68
2022/05/08 04:11:43;;;;;;;9.27;3.65;;;;;;;13.42;77.73;102429.16;7392662;19;20007;-67
2022/05/08 04:14:10;;;;;;;7.63;3.83;;;;;;;13.41;77.96;102431.97;7395843;19;20039;-68
2022/05/08 04:16:38;;;;;;;9.73;2.80;;;;;;;13.31;78.42;102431.06;7391779;19;20014;-69
2022/05/08 04:19:07;;;;;;;9.90;3.22;;;;;;;13.31;77.96;102433.72;7394112;19;20015;-67
2022/05/08 04:21:36;;;;;;;7.22;3.13;;;;;;;13.30;78.04;102437.31;7391331;19;20136;-67
2022/05/08 04:26:40;;;;;;;7.38;3.28;;;;;;;13.32;77.73;102440.66;7396045;19;20409;-69
2022/05/08 04:29:07;;;;;;;6.55;3.40;;;;;;;13.28;77.33;102437.44;7392902;19;20038;-66
2022/05/08 04:31:34;;;;;;;5.65;2.65;;;;;;;13.28;77.70;102434.78;7393405;19;20015;-66
2022/05/08 04:34:01;;;;;;;5.93;2.90;;;;;;;13.27;77.66;102431.31;7392727;19;20015;-68
2022/05/08 04:36:29;;;;;;;7.45;3.10;;;;;;;13.27;77.33;102427.81;7390179;19;20086;-69
2022/05/08 04:38:56;;;;;;;5.25;2.80;;;;;;;13.20;77.21;102438.09;7391862;19;20480;-68
2022/05/08 04:41:23;;;;;;;5.93;2.47;;;;;;;13.15;77.53;102442.94;7390441;19;20034;-66
2022/05/08 04:43:53;;;;;;;4.57;3.03;;;;;;;13.12;78.05;102442.34;7393006;19;20022;-66
2022/05/08 04:46:20;;;;;;;8.50;3.10;;;;;;;13.10;77.70;102441.63;7392013;19;20011;-69
2022/05/08 04:48:47;;;;;;;10.88;4.82;;;;;;;13.12;77.68;102439.69;7391344;19;20018;-70
2022/05/08 04:51:14;;;;;;;9.88;3.85;;;;;;;13.05;77.17;102449.94;7395519;19;20018;-67
2022/05/08 04:53:41;;;;;;;7.15;3.08;;;;;;;13.04;77.02;102440.31;7389297;19;20029;-67
2022/05/08 04:56:08;;;;;;;12.00;3.25;;;;;;;13.00;77.67;102448.66;7393080;19;20035;-68
2022/05/08 04:58:36;;;;;;;9.57;4.10;;;;;;;13.01;77.08;102437.91;7389751;19;20110;-68
2022/05/08 05:01:04;;;;;;;7.32;3.28;;;;;;;12.92;77.17;102440.50;7392149;19;20048;-68
2022/05/08 05:03:31;;;;;;;8.20;4.15;;;;;;;12.88;77.50;102447.84;7392004;19;20761;-67
2022/05/08 05:05:58;;;;;;;9.40;4.03;;;;;;;12.88;77.85;102447.00;7390650;19;20010;-68
2022/05/08 05:08:25;;;;;;;11.52;3.63;;;;;;;12.85;78.44;102463.94;7386034;19;20046;-69
2022/05/08 05:10:52;;;;;;;8.15;4.05;;;;;;;12.85;78.48;102462.13;7391201;19;20339;-67
2022/05/08 05:13:19;;;;;;;10.43;4.57;;;;;;;12.82;78.54;102464.22;7389640;19;20022;-66
2022/05/08 05:15:46;;;;;;;12.20;4.53;;;;;;;12.79;78.68;102464.47;7394967;19;20028;-68
2022/05/08 05:18:13;;;;;;;9.25;4.18;;;;;;;12.76;78.87;102468.19;7390381;19;20006;-68
2022/05/08 05:20:41;;;;;;;9.65;4.22;;;;;;;12.74;78.84;102464.84;7388963;19;20014;-68
2022/05/08 05:23:08;;;;;;;10.55;4.13;;;;;;;12.75;79.32;102474.44;7388677;19;20022;-69
2022/05/08 05:25:35;;;;;;;8.27;3.75;;;;;;;12.80;78.90;102474.03;7394288;19;20441;-69
2022/05/08 05:28:03;;;;;;;9.73;4.18;;;;;;;12.89;78.64;102483.03;7386799;19;20034;-69
2022/05/08 05:30:35;;;;;;;8.60;4.00;;;;;;;12.95;79.01;102471.97;7393666;19;20018;-68
2022/05/08 05:33:03;;;;;;;10.88;4.90;;;;;;;13.02;78.13;102481.88;7388830;19;20354;-67
2022/05/08 05:35:30;;;;;;;10.25;3.90;;;;;;;13.01;78.35;102482.84;7389735;19;20500;-68
2022/05/08 05:37:57;;;;;;;12.13;4.25;;;;;;;13.04;78.98;102479.97;7391498;19;20440;-70
2022/05/08 05:40:24;;;;;;;11.75;4.47;;;;;;;13.09;78.18;102482.22;7389121;19;20033;-70
2022/05/08 05:42:52;;;;;;;7.72;4.00;;;;;;;13.11;78.13;102482.91;7391216;19;20019;-67
2022/05/08 05:45:19;;;;;;;11.40;4.95;;;;;;;13.15;77.45;102484.38;7387221;19;20022;-66
2022/05/08 05:47:49;;;;;;;10.25;4.13;;;;;;;13.10;77.73;102486.53;7387985;19;20054;-68
2022/05/08 05:50:17;;;;;;;11.10;4.72;;;;;;;13.08;77.69;102501.69;7389224;19;20507;-68
2022/05/08 05:52:45;;;;;;;10.45;3.95;;;;;;;13.08;77.84;102491.94;7388187;19;20038;-66
2022/05/08 05:55:12;;;;;;;11.80;4.13;;;;;;;13.10;78.26;102505.03;7389394;19;20031;-67
2022/05/08 05:57:39;;;;;;;9.07;4.10;;;;;;;13.12;78.04;102498.69;7388246;19;20014;-66
2022/05/08 06:00:10;;;;;;;11.40;3.58;;;;;;;13.16;77.91;102493.97;7388728;19;20031;-67
2022/05/08 06:02:42;;;;;;;10.43;4.53;;;;;;;13.20;77.29;102506.00;7387826;19;20412;-68
2022/05/08 06:05:11;;;;;;;12.48;4.45;;;;;;;13.13;77.31;102500.38;7392407;19;20110;-68
2022/05/08 06:07:39;;;;;;;11.07;4.60;;;;;;;13.10;77.59;102500.59;7389890;19;20468;-69
2022/05/08 06:10:08;;;;;;;8.55;4.40;;;;;;;13.06;77.80;102504.44;7386584;19;20049;-67
2022/05/08 06:12:35;;;;;;;7.88;3.97;;;;;;;13.06;78.01;102507.09;7386712;19;20002;-67
2022/05/08 06:15:16;;;;;;;8.60;3.75;;;;;;;13.06;78.22;102514.16;7384176;19;20026;-68
2022/05/08 06:17:43;;;;;;;7.82;4.20;;;;;;;13.00;78.17;102510.25;7386573;19;20460;-70
2022/05/08 06:20:12;;;;;;;8.50;3.42;;;;;;;13.03;77.76;102514.44;7384892;19;20021;-68
2022/05/08 06:22:40;;;;;;;10.48;3.72;;;;;;;13.05;77.64;102517.81;7390223;19;20022;-68
2022/05/08 06:25:08;;;;;;;10.35;3.30;;;;;;;13.08;77.59;102517.53;7387756;19;20134;-68
2022/05/08 06:27:35;;;;;;;7.38;3.50;;;;;;;13.08;76.59;102521.03;7387435;19;20024;-68
2022/05/08 06:30:02;;;;;;;7.68;2.88;;;;;;;13.10;76.06;102534.13;7388815;19;20011;-68
2022/05/08 06:32:30;;;;;;;13.30;5.22;;;;;;;13.12;76.35;102533.03;7389220;19;20033;-68
2022/05/08 06:35:17;;;;;;;9.27;3.33;;;;;;;13.02;75.49;102529.44;7392018;19;20018;-68
2022/05/08 06:37:44;;;;;;;8.40;3.05;;;;;;;12.99;76.00;102520.94;7387813;19;20463;-70
2022/05/08 06:40:12;;;;;;;10.30;3.28;;;;;;;12.83;77.03;102522.22;7390997;19;20065;-67
2022/05/08 06:42:39;;;;;;;13.25;3.40;;;;;;;12.74;76.72;102536.16;7386949;19;20010;-70
2022/05/08 06:45:07;;;;;;;11.77;3.13;;;;;;;12.66;77.46;102535.09;7387224;19;20023;-67
2022/05/08 06:47:34;;;;;;;13.35;3.22;;;;;;;12.60;77.49;102531.13;7385329;19;20003;-68
2022/05/08 06:50:01;;;;;;;12.30;3.40;;;;;;;12.55;77.46;102532.47;7386930;19;20030;-68
2022/05/08 06:52:29;;;;;;;5.80;2.85;;;;;;;12.48;77.55;102545.34;7388298;19;20028;-67
2022/05/08 06:54:57;;;;;;;12.95;2.70;;;;;;;12.27;77.29;102542.59;7387526;19;20019;-69
2022/05/08 06:57:24;;;;;;;13.27;3.25;;;;;;;12.19;77.87;102536.25;7390633;19;20019;-68
2022/05/08 07:02:29;;;;;;;13.55;2.90;;;;;;;12.20;77.53;102537.91;7384970;19;20357;-68
2022/05/08 07:04:56;;;;;;;11.95;3.58;;;;;;;12.22;77.77;102544.78;7389377;19;20466;-69
2022/05/08 07:07:23;;;;;;;11.05;2.83;;;;;;;12.30;76.85;102549.44;7387946;19;20034;-67
2022/05/08 07:09:51;;;;;;;12.07;2.35;;;;;;;12.31;75.60;102543.19;7384960;19;20011;-68
2022/05/08 07:12:18;;;;;;;11.05;3.40;;;;;;;12.36;75.70;102547.16;7385414;19;20501;-67
2022/05/08 07:14:46;;;;;;;14.35;2.80;;;;;;;12.40;75.15;102545.09;7388247;19;20015;-67
2022/05/08 07:17:13;;;;;;;12.32;2.20;;;;;;;12.33;75.08;102541.28;7390216;19;20007;-69
2022/05/08 07:19:43;;;;;;;11.85;2.40;;;;;;;12.36;75.51;102541.03;7386172;19;20014;-67
2022/05/08 07:22:10;;;;;;;11.60;2.08;;;;;;;12.42;74.91;102540.56;7384920;19;20011;-68
2022/05/08 07:24:39;;;;;;;14.20;1.92;;;;;;;12.40;74.84;102548.59;7388328;19;20070;-66
2022/05/08 07:27:10;;;;;;;17.55;2.78;;;;;;;12.41;74.27;102538.88;7382420;19;20018;-68
2022/05/08 07:29:40;;;;;;;15.40;2.33;;;;;;;12.45;74.11;102545.56;7389108;19;20018;-66
2022/05/08 07:32:08;;;;;;;11.25;2.05;;;;;;;12.53;73.96;102540.53;7384364;19;20066;-67
2022/05/08 07:37:15;;;;;;;9.63;2.03;;;;;;;12.70;72.31;102542.63;7384447;19;20130;-67
2022/05/08 07:39:43;;;;;;;13.50;1.30;;;;;;;12.85;71.00;102544.03;7387050;19;20046;-67
2022/05/08 07:42:10;;;;;;;13.63;2.17;;;;;;;13.04;70.02;102543.38;7384001;19;20019;-66
2022/05/08 07:44:37;;;;;;;10.45;1.23;;;;;;;13.20;69.48;102546.47;7384973;19;20007;-67
2022/05/08 07:47:07;;;;;;;11.70;1.60;;;;;;;13.26;68.40;102553.88;7384244;19;20025;-67
2022/05/08 07:49:34;;;;;;;10.88;2.00;;;;;;;13.54;66.78;102555.06;7386108;19;20019;-68
2022/05/08 07:52:02;;;;;;;12.10;1.35;;;;;;;13.71;65.43;102549.16;7384298;19;20014;-68
2022/05/08 07:54:29;;;;;;;12.57;1.30;;;;;;;13.83;64.67;102557.03;7384766;19;20034;-66
2022/05/08 07:56:58;;;;;;;11.27;1.48;;;;;;;14.45;62.54;102557.75;7389195;19;20019;-68
2022/05/08 07:59:25;;;;;;;11.95;1.13;;;;;;;15.07;60.24;102555.75;7384372;19;20018;-69
2022/05/08 08:01:52;;;;;;;11.05;0.88;;;;;;;15.29;58.69;102561.59;7383617;19;20032;-68
2022/05/08 08:04:20;;;;;;;10.63;1.20;;;;;;;15.12;59.76;102562.31;7387361;19;20023;-68
2022/05/08 08:06:47;;;;;;;14.85;3.05;;;;;;;14.81;60.62;102560.75;7389730;19;20333;-67
2022/05/08 08:09:15;;;;;;;17.45;1.90;;;;;;;14.76;61.45;102557.69;7386901;19;20552;-66
2022/05/08 08:11:42;;;;;;;8.80;1.13;;;;;;;15.08;59.52;102557.44;7387716;19;20075;-67
2022/05/08 08:14:10;;;;;;;7.82;1.50;;;;;;;15.08;59.50;102552.13;7386705;19;20175;-68
2022/05/08 08:16:57;;;;;;;8.68;1.02;;;;;;;14.93;60.04;102555.16;7383972;19;20021;-69
2022/05/08 08:19:24;;;;;;;13.10;1.27;;;;;;;14.77;59.07;102556.72;7387729;19;20021;-69
2022/05/08 08:21:52;;;;;;;12.52;1.27;;;;;;;14.67;60.09;102547.91;7384216;19;20466;-68
2022/05/08 08:24:19;;;;;;;8.85;1.65;;;;;;;14.53;61.69;102552.59;7387078;19;20021;-67
2022/05/08 08:26:46;;;;;;;12.93;1.30;;;;;;;14.44;61.88;102547.28;7385318;19;20341;-68
2022/05/08 08:29:14;;;;;;;12.32;2.28;;;;;;;14.44;61.69;102542.81;7386434;19;20131;-66
2022/05/08 08:31:41;;;;;;;14.90;1.70;;;;;;;14.44;62.94;102539.34;7388364;19;20014;-68
2022/05/08 08:34:08;;;;;;;14.25;1.65;;;;;;;14.48;62.10;102543.38;7386722;19;20057;-69
2022/05/08 08:36:36;;;;;;;10.32;1.42;;;;;;;14.52;61.50;102548.31;7386290;19;20011;-66
2022/05/08 08:39:03;;;;;;;9.88;1.02;;;;;;;14.55;61.01;102544.53;7382960;19;20034;-69
2022/05/08 08:41:35;;;;;;;12.50;1.15;;;;;;;14.51;61.07;102541.31;7385644;19;20181;-67
2022/05/08 08:49:22;;;;;;;9.30;0.98;;;;;;;14.49;59.87;102537.13;7391099;19;20482;-68
2022/05/08 08:51:55;;;;;;;10.37;1.23;;;;;;;14.49;59.79;102539.78;7393303;19;20034;-68
2022/05/08 08:54:27;;;;;;;11.85;1.05;;;;;;;14.57;59.55;102536.44;7391314;19;20305;-68
2022/05/08 08:56:54;;;;;;;9.35;1.25;;;;;;;14.51;59.46;102536.03;7390737;19;20006;-67
2022/05/08 08:59:27;;;;;;;11.82;0.93;;;;;;;14.50;59.70;102531.69;7392816;19;20021;-67
2022/05/08 09:01:55;;;;;;;11.55;1.25;;;;;;;14.47;60.01;102534.63;7390080;19;20011;-69
2022/05/08 09:04:26;;;;;;;7.95;1.10;;;;;;;14.56;59.98;102530.31;7391957;19;20114;-68
2022/05/08 09:06:53;;;;;;;14.10;1.27;;;;;;;14.68;60.03;102528.41;7393808;19;20025;-67
2022/05/08 09:09:23;;;;;;;9.13;1.45;;;;;;;14.89;59.72;102535.22;7390246;19;20010;-69
2022/05/08 09:11:53;;;;;;;9.32;1.63;;;;;;;15.11;58.32;102533.28;7390339;19;20022;-68
2022/05/08 09:14:28;;;;;;;13.02;1.73;;;;;;;15.28;57.94;102533.44;7391612;19;20014;-67
2022/05/08 09:16:59;;;;;;;10.75;1.02;;;;;;;15.46;56.82;102525.56;7389715;19;20041;-66
2022/05/08 09:19:38;;;;;;;11.57;1.50;;;;;;;15.61;57.07;102531.28;7390439;19;20082;-67
2022/05/08 09:22:07;;;;;;;15.10;1.52;;;;;;;15.73;54.25;102528.34;7388990;19;20015;-68
2022/05/08 09:24:51;;;;;;;10.15;1.17;;;;;;;15.81;54.15;102532.91;7393125;19;20579;-70
2022/05/08 09:27:19;;;;;;;9.52;0.80;;;;;;;15.86;51.66;102532.47;7390320;19;20130;-68
2022/05/08 09:29:46;;;;;;;12.55;0.90;;;;;;;15.97;51.61;102524.31;7389824;19;20018;-68
2022/05/08 09:32:35;;;;;;;8.70;1.00;;;;;;;16.07;51.46;102528.63;7390576;19;20286;-69
2022/05/08 09:35:03;;;;;;;8.45;1.00;;;;;;;16.04;51.60;102522.78;7390911;19;20043;-67
2022/05/08 09:37:31;;;;;;;10.75;0.90;;;;;;;16.07;52.03;102527.78;7392034;19;20440;-67
2022/05/08 09:40:18;;;;;;;12.15;1.13;;;;;;;16.10;53.51;102524.84;7390443;19;20018;-67
2022/05/08 09:42:47;;;;;;;9.15;1.02;;;;;;;16.13;53.94;102519.22;7389923;19;20034;-67
2022/05/08 09:45:14;;;;;;;12.60;0.82;;;;;;;16.22;53.78;102524.50;7388418;19;20451;-69
2022/05/08 09:47:45;;;;;;;14.55;1.30;;;;;;;16.29;53.78;102522.09;7392141;19;20483;-68
2022/05/08 09:50:13;;;;;;;6.45;0.98;;;;;;;16.36;52.35;102519.66;7389290;19;20014;-67
2022/05/08 09:52:42;;;;;;;9.20;1.40;;;;;;;16.40;52.89;102521.91;7388954;19;20010;-67
2022/05/08 09:55:12;;;;;;;14.77;1.00;;;;;;;16.55;52.68;102516.91;7389053;19;20329;-67
2022/05/08 09:57:40;;;;;;;10.48;1.23;;;;;;;16.57;52.87;102523.72;7388295;19;20007;-67
2022/05/08 10:00:13;;;;;;;15.38;1.30;;;;;;;16.68;52.90;102518.22;7388800;19;20499;-67
2022/05/08 10:02:43;;;;;;;6.38;0.70;;;;;;;16.72;52.08;102509.94;7386805;19;20003;-68
2022/05/08 10:05:10;;;;;;;9.32;1.40;;;;;;;16.76;52.54;102508.69;7391568;19;20015;-68
2022/05/08 10:07:39;;;;;;;9.15;1.20;;;;;;;16.82;52.77;102506.22;7391737;19;20007;-69
2022/05/08 10:15:35;;;;;;;9.05;0.77;;;;;;;17.18;50.26;102515.00;7388029;19;20115;-69
2022/05/08 10:18:25;;;;;;;10.30;0.90;;;;;;;17.30;50.00;102499.66;7388284;19;20030;-67
2022/05/08 10:21:03;;;;;;;10.38;0.85;;;;;;;17.41;49.36;102500.25;7387214;19;20010;-69
2022/05/08 10:23:34;;;;;;;7.15;0.95;;;;;;;17.47;49.14;102501.44;7388485;19;20014;-68
2022/05/08 10:26:22;;;;;;;7.25;0.70;;;;;;;17.49;48.18;102502.09;7389316;19;20017;-68
2022/05/08 10:29:08;;;;;;;8.23;0.77;;;;;;;17.50;48.74;102504.63;7387071;19;20006;-68
2022/05/08 10:31:47;;;;;;;7.10;1.00;;;;;;;17.51;47.42;102506.28;7391699;19;20015;-68
2022/05/08 10:34:15;;;;;;;7.35;0.95;;;;;;;17.49;48.27;102488.78;7390915;19;20156;-69
2022/05/08 10:37:10;;;;;;;15.20;1.52;;;;;;;17.48;49.14;102493.28;7388673;19;20401;-66
2022/05/08 10:39:47;;;;;;;9.77;1.05;;;;;;;17.56;49.00;102486.34;7388655;19;20021;-68
2022/05/08 10:42:24;;;;;;;10.18;1.00;;;;;;;17.59;49.08;102483.34;7389085;19;20010;-68
2022/05/08 10:44:52;;;;;;;6.88;0.88;;;;;;;17.60;49.21;102487.72;7388413;19;20805;-69
2022/05/08 10:47:34;;;;;;;9.18;1.30;;;;;;;17.65;50.38;102488.94;7386554;19;20509;-66
2022/05/08 10:50:05;;;;;;;10.02;0.90;;;;;;;17.67;50.76;102496.78;7384651;19;20107;-67
2022/05/08 10:52:33;;;;;;;6.82;1.10;;;;;;;17.73;49.83;102498.78;7386985;19;20015;-66
2022/05/08 10:55:04;;;;;;;7.65;0.90;;;;;;;17.77;48.31;102500.16;7387548;19;20654;-66
2022/05/08 10:57:33;;;;;;;7.70;0.98;;;;;;;17.68;48.24;102490.41;7386165;19;20054;-68
2022/05/08 11:00:01;;;;;;;5.43;1.10;;;;;;;17.67;48.78;102497.59;7388517;19;20006;-69
2022/05/08 11:02:47;;;;;;;5.32;0.80;;;;;;;17.62;49.49;102493.75;7388438;19;20709;-67
2022/05/08 11:05:20;;;;;;;7.72;0.90;;;;;;;17.61;50.19;102492.06;7386683;19;20354;-67
2022/05/08 11:07:56;;;;;;;9.10;0.98;;;;;;;17.65;48.62;102502.25;7386312;19;20063;-67
2022/05/08 11:10:30;;;;;;;7.30;1.10;;;;;;;17.66;48.74;102495.09;7388502;19;20077;-66
2022/05/08 11:12:59;;;;;;;13.32;0.82;;;;;;;17.58;48.59;102485.19;7386673;19;20051;-66
2022/05/08 11:15:28;;;;;;;7.38;1.23;;;;;;;17.60;49.11;102495.72;7387614;19;20002;-66
2022/05/08 11:18:07;;;;;;;9.40;0.85;;;;;;;17.61;49.70;102494.72;7387053;19;20010;-67
2022/05/08 11:20:37;;;;;;;8.15;0.70;;;;;;;17.61;49.63;102494.72;7388251;19;20023;-67
2022/05/08 11:23:05;;;;;;;9.10;1.00;;;;;;;17.65;50.61;102502.25;7386909;19;20007;-68
2022/05/08 11:25:33;;;;;;;7.78;0.60;;;;;;;17.66;49.51;102485.28;7387549;19;20024;-69
2022/05/08 11:28:04;;;;;;;7.20;1.10;;;;;;;17.63;50.49;102490.91;7386992;19;20364;-68
2022/05/08 11:30:37;;;;;;;8.38;1.08;;;;;;;17.63;51.35;102485.56;7385227;19;20015;-69
2022/05/08 11:38:27;;;;;;;9.10;1.20;;;;;;;17.62;51.90;102486.59;7386102;19;20115;-68
2022/05/08 11:40:54;;;;;;;7.82;1.08;;;;;;;17.63;52.15;102480.25;7384903;19;20030;-67
2022/05/08 11:43:40;;;;;;;5.03;0.88;;;;;;;17.72;52.54;102483.81;7386503;19;20023;-67
2022/05/08 11:46:08;;;;;;;7.72;0.98;;;;;;;17.82;50.17;102473.88;7388793;19;20356;-69
2022/05/08 11:48:37;;;;;;;8.57;1.13;;;;;;;17.85;50.56;102474.38;7387057;19;20382;-68
2022/05/08 11:51:05;;;;;;;9.10;1.10;;;;;;;17.90;51.61;102476.56;7390226;19;20010;-70
2022/05/08 11:53:50;;;;;;;4.85;0.70;;;;;;;17.98;51.72;102465.13;7385125;19;20314;-68
2022/05/08 11:56:21;;;;;;;5.70;0.80;;;;;;;18.00;51.33;102466.63;7387451;19;20019;-68
2022/05/08 11:58:48;;;;;;;10.15;0.90;;;;;;;18.02;50.62;102469.97;7385230;19;20007;-68
2022/05/08 12:01:25;;;;;;;14.18;1.35;;;;;;;18.05;50.62;102468.78;7386267;19;20010;-68
2022/05/08 12:03:53;;;;;;;10.07;1.08;;;;;;;18.05;51.69;102458.13;7386167;19;20014;-68